Time;durP1;ratioP1;P1;durP2;ratioP2;P2;SDS_P1;SDS_P2;PMS_P1;PMS_P2;Temp;Humidity;BMP_temperature;BMP_pressure;BME280_temperature;BME280_humidity;BME280_pressure;Samples;Min_cycle;Max_cycle;Signal;HPM_P1;HPM_P2
2023/06/25 00:01:56;;;;;;;11.35;9.70;;;19.40;99.90;;;;;;5002761;28;20046;-75
2023/06/25 00:04:23;;;;;;;12.57;8.55;;;19.40;99.90;;;;;;5002863;28;20046;-76
2023/06/25 00:06:51;;;;;;;9.38;8.48;;;19.40;99.90;;;;;;5002246;28;20093;-77
2023/06/25 00:09:18;;;;;;;10.68;9.48;;;19.40;99.90;;;;;;5002915;28;20038;-77
2023/06/25 00:11:46;;;;;;;12.65;8.65;;;19.40;99.90;;;;;;5004478;28;20049;-75
2023/06/25 00:14:13;;;;;;;9.60;8.60;;;19.40;99.90;;;;;;5000244;28;20049;-78
2023/06/25 00:16:40;;;;;;;9.52;8.25;;;19.40;99.90;;;;;;5000946;28;20039;-75
2023/06/25 00:19:09;;;;;;;8.82;7.50;;;19.40;99.90;;;;;;4984805;28;20498;-77
2023/06/25 00:21:37;;;;;;;9.90;7.32;;;19.40;99.90;;;;;;5001331;28;20136;-74
2023/06/25 00:24:05;;;;;;;10.30;7.10;;;19.40;99.90;;;;;;5001196;28;20583;-74
2023/06/25 00:26:32;;;;;;;8.57;6.28;;;19.40;99.90;;;;;;5000941;28;20034;-76
2023/06/25 00:29:00;;;;;;;11.40;7.45;;;19.40;99.90;;;;;;4983363;28;20052;-77
2023/06/25 00:31:27;;;;;;;10.38;9.25;;;19.40;99.90;;;;;;4985761;28;20097;-76
2023/06/25 00:33:54;;;;;;;15.07;8.63;;;19.40;99.90;;;;;;5001361;28;20494;-74
2023/06/25 00:36:24;;;;;;;12.80;8.20;;;19.40;99.90;;;;;;5001208;28;20033;-73
2023/06/25 00:38:51;;;;;;;8.68;7.60;;;19.40;99.90;;;;;;4984825;28;20050;-77
2023/06/25 00:41:19;;;;;;;9.48;7.10;;;19.40;99.90;;;;;;5012184;28;20034;-78
2023/06/25 00:43:46;;;;;;;6.97;6.28;;;19.40;99.90;;;;;;5004857;28;20042;-75
2023/06/25 00:46:15;;;;;;;7.13;6.43;;;19.40;99.90;;;;;;4997022;28;20044;-75
2023/06/25 00:48:45;;;;;;;9.13;5.95;;;19.40;99.90;;;;;;4988298;28;20053;-75
2023/06/25 00:51:14;;;;;;;6.43;5.60;;;19.30;99.90;;;;;;5019389;28;20051;-77
2023/06/25 00:53:43;;;;;;;6.50;5.22;;;19.30;99.90;;;;;;4985409;28;20129;-77
2023/06/25 00:56:12;;;;;;;6.55;5.15;;;19.20;99.90;;;;;;4983295;28;20049;-76
2023/06/25 00:58:40;;;;;;;7.80;4.80;;;19.20;99.90;;;;;;4983475;28;20069;-75
2023/06/25 01:01:15;;;;;;;8.70;5.97;;;19.30;99.90;;;;;;4999448;28;20081;-77
2023/06/25 01:03:54;;;;;;;11.40;5.90;;;19.30;99.90;;;;;;4983636;28;20053;-76
2023/06/25 01:06:29;;;;;;;8.52;5.68;;;19.30;99.90;;;;;;4982694;28;20287;-76
2023/06/25 01:08:59;;;;;;;10.68;5.82;;;19.30;99.90;;;;;;5001986;28;20042;-76
2023/06/25 01:11:28;;;;;;;7.53;6.78;;;19.30;99.90;;;;;;5001763;28;20558;-75
2023/06/25 01:13:56;;;;;;;7.70;6.65;;;19.30;99.90;;;;;;5014332;28;20049;-76
2023/06/25 01:16:24;;;;;;;9.15;6.25;;;19.30;99.90;;;;;;5006352;28;20102;-75
2023/06/25 01:18:51;;;;;;;9.95;6.63;;;19.30;99.90;;;;;;5019992;28;20039;-75
2023/06/25 01:21:23;;;;;;;12.20;6.35;;;19.30;99.90;;;;;;5011289;28;20051;-77
2023/06/25 01:23:53;;;;;;;8.40;6.53;;;19.20;99.90;;;;;;4984198;28;20137;-74
2023/06/25 01:26:20;;;;;;;9.25;6.22;;;19.20;99.90;;;;;;5002045;28;20560;-76
2023/06/25 01:28:48;;;;;;;7.28;6.57;;;19.20;99.90;;;;;;4987014;28;20041;-75
2023/06/25 01:31:15;;;;;;;9.45;6.68;;;19.20;99.90;;;;;;5005744;28;20495;-76
2023/06/25 01:33:43;;;;;;;9.73;7.30;;;19.20;99.90;;;;;;4995652;28;20061;-77
2023/06/25 01:36:10;;;;;;;11.77;7.82;;;19.20;99.90;;;;;;4999865;28;20510;-76
2023/06/25 01:38:37;;;;;;;11.43;8.10;;;19.30;99.90;;;;;;4999454;28;20104;-79
2023/06/25 01:41:06;;;;;;;10.43;7.50;;;19.30;99.90;;;;;;4999318;28;20050;-75
2023/06/25 01:43:33;;;;;;;11.77;7.75;;;19.30;99.90;;;;;;4999651;28;20092;-78
2023/06/25 01:46:01;;;;;;;10.85;7.38;;;19.30;99.90;;;;;;4999565;28;20041;-78
2023/06/25 01:48:28;;;;;;;11.48;7.45;;;19.30;99.90;;;;;;5000953;28;20030;-77
2023/06/25 01:50:56;;;;;;;12.57;7.28;;;19.30;99.90;;;;;;4980655;28;20136;-77
2023/06/25 01:53:24;;;;;;;8.20;7.10;;;19.40;99.90;;;;;;4981397;28;20406;-79
2023/06/25 01:55:52;;;;;;;10.25;7.28;;;19.30;99.90;;;;;;4981445;28;20434;-77
2023/06/25 01:58:21;;;;;;;11.68;7.40;;;19.30;99.90;;;;;;5005438;28;20046;-76
2023/06/25 02:00:49;;;;;;;9.38;7.18;;;19.30;99.90;;;;;;4983153;28;20520;-77
2023/06/25 02:03:19;;;;;;;9.93;7.45;;;19.30;99.90;;;;;;4998592;28;20061;-77
2023/06/25 02:05:46;;;;;;;9.55;7.82;;;19.30;99.90;;;;;;4999438;28;20057;-77
2023/06/25 02:08:13;;;;;;;11.60;8.18;;;19.30;99.90;;;;;;4998046;28;20038;-77
2023/06/25 02:10:41;;;;;;;13.95;9.45;;;19.30;99.90;;;;;;4996541;28;20426;-76
2023/06/25 02:13:09;;;;;;;13.32;10.00;;;19.30;99.90;;;;;;4983245;28;20070;-78
2023/06/25 02:15:38;;;;;;;13.25;10.00;;;19.20;99.90;;;;;;4981070;28;20049;-75
2023/06/25 02:18:05;;;;;;;10.48;8.77;;;19.20;99.90;;;;;;4980008;28;20045;-78
2023/06/25 02:20:33;;;;;;;16.40;10.75;;;19.20;99.90;;;;;;4982087;28;20038;-74
2023/06/25 02:23:00;;;;;;;13.75;10.43;;;19.20;99.90;;;;;;4983163;28;20042;-77
2023/06/25 02:25:27;;;;;;;12.23;9.80;;;19.20;99.90;;;;;;5003200;28;20136;-80
2023/06/25 02:27:55;;;;;;;13.07;9.55;;;19.20;99.90;;;;;;5002117;28;20050;-76
2023/06/25 02:30:22;;;;;;;13.02;9.27;;;19.20;99.90;;;;;;4981528;28;20034;-75
2023/06/25 02:32:51;;;;;;;12.38;9.13;;;19.20;99.90;;;;;;5005340;28;20038;-80
2023/06/25 02:35:18;;;;;;;10.75;8.50;;;19.20;99.90;;;;;;4986589;28;20453;-76
2023/06/25 02:37:45;;;;;;;12.07;8.57;;;19.20;99.90;;;;;;5008961;28;20038;-76
2023/06/25 02:40:13;;;;;;;10.52;8.50;;;19.20;99.90;;;;;;4997925;28;20046;-75
2023/06/25 02:42:41;;;;;;;9.43;7.70;;;19.10;99.90;;;;;;4983428;28;20133;-77
2023/06/25 02:45:09;;;;;;;10.32;7.47;;;19.10;99.90;;;;;;4996915;28;20092;-78
2023/06/25 02:47:37;;;;;;;11.45;7.57;;;19.10;99.90;;;;;;4996474;28;20141;-77
2023/06/25 02:50:07;;;;;;;8.13;7.25;;;19.10;99.90;;;;;;4980252;28;20095;-76
2023/06/25 02:52:36;;;;;;;11.13;7.35;;;19.10;99.90;;;;;;4979402;28;20074;-77
2023/06/25 02:55:04;;;;;;;11.27;7.30;;;19.10;99.90;;;;;;4980244;28;20050;-76
2023/06/25 02:57:31;;;;;;;11.10;7.57;;;19.10;99.90;;;;;;4979360;28;20046;-78
2023/06/25 02:59:59;;;;;;;10.25;7.32;;;19.00;99.90;;;;;;4980926;28;20077;-78
2023/06/25 03:02:27;;;;;;;13.77;7.13;;;19.10;99.90;;;;;;4994646;28;20667;-75
2023/06/25 03:04:54;;;;;;;8.52;6.63;;;19.10;99.90;;;;;;4979802;28;20062;-77
2023/06/25 03:07:23;;;;;;;11.88;6.95;;;19.10;99.90;;;;;;4982280;28;20465;-76
2023/06/25 03:09:53;;;;;;;11.27;7.32;;;19.00;99.90;;;;;;4981896;28;20046;-76
2023/06/25 03:12:21;;;;;;;9.48;6.30;;;19.00;99.90;;;;;;4981374;28;20038;-76
2023/06/25 03:14:48;;;;;;;10.32;7.38;;;19.00;99.90;;;;;;4982551;28;20125;-74
2023/06/25 03:17:16;;;;;;;8.90;7.90;;;19.00;99.90;;;;;;5004864;28;20204;-77
2023/06/25 03:19:43;;;;;;;10.77;7.57;;;19.00;99.90;;;;;;5001745;28;20530;-77
2023/06/25 03:22:11;;;;;;;8.75;7.57;;;18.90;99.90;;;;;;5021796;28;20042;-78
2023/06/25 03:24:43;;;;;;;9.30;7.43;;;19.00;99.90;;;;;;5003906;28;20058;-78
2023/06/25 03:27:11;;;;;;;11.05;7.70;;;19.00;99.90;;;;;;4990100;28;20050;-77
2023/06/25 03:29:38;;;;;;;10.95;7.35;;;19.00;99.90;;;;;;5006250;28;20041;-77
2023/06/25 03:32:07;;;;;;;9.30;7.45;;;19.00;99.90;;;;;;4998203;28;20078;-76
2023/06/25 03:34:34;;;;;;;9.60;7.65;;;19.00;99.90;;;;;;4982476;28;20551;-76
2023/06/25 03:37:02;;;;;;;12.52;7.85;;;18.90;99.90;;;;;;4985471;28;20038;-77
2023/06/25 03:39:30;;;;;;;8.38;7.47;;;18.90;99.90;;;;;;4988233;28;20042;-76
2023/06/25 03:41:59;;;;;;;8.63;7.72;;;18.90;99.90;;;;;;4998805;28;20124;-76
2023/06/25 03:44:26;;;;;;;9.65;7.15;;;19.00;99.90;;;;;;4981118;28;20060;-76
2023/06/25 03:46:54;;;;;;;13.50;7.50;;;19.00;99.90;;;;;;4986975;28;20077;-77
2023/06/25 03:49:24;;;;;;;15.52;7.88;;;19.00;99.90;;;;;;4984572;28;20042;-76
2023/06/25 03:51:52;;;;;;;7.47;6.53;;;19.00;99.90;;;;;;4984714;28;20046;-77
2023/06/25 03:54:19;;;;;;;10.70;7.30;;;19.00;99.90;;;;;;5000649;28;20124;-77
2023/06/25 03:56:47;;;;;;;10.07;7.00;;;19.00;99.90;;;;;;4984045;28;20038;-75
2023/06/25 03:59:15;;;;;;;7.43;6.32;;;19.00;99.90;;;;;;4983756;28;20108;-74
2023/06/25 04:01:43;;;;;;;10.40;6.30;;;19.00;99.90;;;;;;4991486;28;20072;-77
2023/06/25 04:04:10;;;;;;;7.47;6.18;;;19.00;99.90;;;;;;4986144;28;20046;-77
2023/06/25 04:06:38;;;;;;;9.93;6.60;;;18.90;99.90;;;;;;4981826;28;20094;-77
2023/06/25 04:09:09;;;;;;;8.10;6.32;;;18.80;99.90;;;;;;4983169;28;20478;-76
2023/06/25 04:11:36;;;;;;;9.93;6.72;;;18.80;99.90;;;;;;4984599;28;20051;-76
2023/06/25 04:14:04;;;;;;;8.27;6.60;;;18.90;99.90;;;;;;5001138;28;20050;-77
2023/06/25 04:16:33;;;;;;;7.95;6.13;;;18.90;99.90;;;;;;4983015;28;20038;-77
2023/06/25 04:19:00;;;;;;;8.27;6.80;;;18.90;99.90;;;;;;4981947;28;20049;-77
2023/06/25 04:21:28;;;;;;;9.63;6.72;;;18.90;99.90;;;;;;4982893;28;20041;-77
2023/06/25 04:23:55;;;;;;;9.30;6.38;;;18.90;99.90;;;;;;4983834;28;20133;-77
2023/06/25 04:26:23;;;;;;;8.68;6.65;;;18.90;99.90;;;;;;4984271;28;20125;-77
2023/06/25 04:28:50;;;;;;;8.65;6.50;;;19.00;99.90;;;;;;5000934;28;20057;-77
2023/06/25 04:31:21;;;;;;;11.23;7.43;;;19.00;99.90;;;;;;4983821;28;20428;-76
2023/06/25 04:33:53;;;;;;;9.02;6.72;;;18.90;99.90;;;;;;4982350;28;20422;-77
2023/06/25 04:36:20;;;;;;;8.90;6.53;;;19.00;99.90;;;;;;5000638;28;20042;-76
2023/06/25 04:38:54;;;;;;;8.02;6.47;;;18.90;99.90;;;;;;4983741;28;20052;-75
2023/06/25 04:41:24;;;;;;;8.85;7.38;;;18.90;99.90;;;;;;4984444;28;20086;-78
2023/06/25 04:43:52;;;;;;;14.40;8.20;;;18.90;99.90;;;;;;4993059;28;20081;-75
2023/06/25 04:46:19;;;;;;;18.92;16.25;;;18.90;99.90;;;;;;5009992;28;20054;-74
2023/06/25 04:48:47;;;;;;;13.40;10.30;;;18.90;99.90;;;;;;4983838;28;20066;-77
2023/06/25 04:51:16;;;;;;;19.15;14.45;;;18.90;99.90;;;;;;4983719;28;20129;-78
2023/06/25 04:53:45;;;;;;;17.25;11.65;;;18.80;99.90;;;;;;4999242;28;20783;-77
2023/06/25 04:56:12;;;;;;;15.27;11.73;;;18.70;99.90;;;;;;5001452;28;20045;-76
2023/06/25 04:58:40;;;;;;;17.77;11.98;;;18.70;99.90;;;;;;5000278;28;20109;-78
2023/06/25 05:01:07;;;;;;;15.02;11.52;;;18.70;99.90;;;;;;5001096;28;20049;-77
2023/06/25 05:03:34;;;;;;;13.68;11.82;;;18.70;99.90;;;;;;4998703;28;20043;-77
2023/06/25 05:06:02;;;;;;;13.85;10.85;;;18.70;99.90;;;;;;4981887;28;20045;-77
2023/06/25 05:08:30;;;;;;;10.52;9.40;;;18.70;99.90;;;;;;5000401;28;20049;-75
2023/06/25 05:10:58;;;;;;;9.43;8.45;;;18.70;99.90;;;;;;5002480;28;20490;-76
2023/06/25 05:13:26;;;;;;;10.88;9.35;;;18.70;99.90;;;;;;4998696;28;20050;-76
2023/06/25 05:16:01;;;;;;;13.88;9.77;;;18.70;99.90;;;;;;5001508;28;20410;-77
2023/06/25 05:18:29;;;;;;;10.75;8.55;;;18.70;99.90;;;;;;4999852;28;20053;-77
2023/06/25 05:20:56;;;;;;;11.60;9.40;;;18.70;99.90;;;;;;5000551;28;20065;-77
2023/06/25 05:23:25;;;;;;;10.57;8.45;;;18.70;99.90;;;;;;5000307;28;20100;-76
2023/06/25 05:25:54;;;;;;;14.52;8.38;;;18.80;99.90;;;;;;5001914;28;20058;-77
2023/06/25 05:28:21;;;;;;;12.60;9.45;;;18.80;99.90;;;;;;5007320;28;20046;-77
2023/06/25 05:30:51;;;;;;;11.13;9.63;;;18.90;99.90;;;;;;5003433;28;20523;-75
2023/06/25 05:33:18;;;;;;;13.55;9.80;;;19.10;99.90;;;;;;5016344;28;20046;-77
2023/06/25 05:35:45;;;;;;;15.07;9.75;;;19.20;99.90;;;;;;5017632;28;20046;-76
2023/06/25 05:38:13;;;;;;;14.68;9.77;;;19.30;99.90;;;;;;5021865;28;20050;-76
2023/06/25 05:40:40;;;;;;;14.10;10.57;;;19.40;99.90;;;;;;5020976;28;20041;-77
2023/06/25 05:43:08;;;;;;;12.27;9.73;;;19.50;99.90;;;;;;4995062;28;20074;-78
2023/06/25 05:45:36;;;;;;;11.23;9.77;;;19.60;99.90;;;;;;5006692;28;20058;-76
2023/06/25 05:48:03;;;;;;;11.77;8.98;;;19.70;99.90;;;;;;5004342;28;20103;-75
2023/06/25 05:50:30;;;;;;;10.38;9.23;;;19.90;99.90;;;;;;5002476;28;20053;-75
2023/06/25 05:52:58;;;;;;;14.93;11.20;;;20.10;99.90;;;;;;4994775;28;20096;-75
2023/06/25 05:55:25;;;;;;;11.38;9.80;;;20.30;99.90;;;;;;4996347;28;20085;-76
2023/06/25 05:57:52;;;;;;;13.93;8.45;;;20.40;99.90;;;;;;5002948;28;20042;-75
2023/06/25 06:00:23;;;;;;;14.95;9.88;;;20.60;99.90;;;;;;5001440;28;20044;-75
2023/06/25 06:02:50;;;;;;;12.00;9.43;;;20.60;99.90;;;;;;5002797;28;20042;-76
2023/06/25 06:05:17;;;;;;;12.50;9.52;;;20.70;99.90;;;;;;5001294;28;20416;-76
2023/06/25 06:07:44;;;;;;;13.10;9.63;;;20.60;99.90;;;;;;5000506;28;20037;-77
2023/06/25 06:10:15;;;;;;;13.18;10.13;;;20.50;99.90;;;;;;5000292;28;20046;-73
2023/06/25 06:12:42;;;;;;;12.63;8.63;;;20.50;99.90;;;;;;4981873;28;20041;-76
2023/06/25 06:15:10;;;;;;;11.55;9.15;;;20.60;99.90;;;;;;4999376;28;20137;-73
2023/06/25 06:17:42;;;;;;;13.13;9.18;;;20.70;99.90;;;;;;4994309;28;20646;-77
2023/06/25 06:20:10;;;;;;;13.50;9.55;;;20.70;99.90;;;;;;4997069;28;20038;-76
2023/06/25 06:22:37;;;;;;;12.85;8.65;;;20.80;99.90;;;;;;4999036;28;20573;-76
2023/06/25 06:25:08;;;;;;;11.05;8.07;;;20.80;99.90;;;;;;4999048;28;20049;-75
2023/06/25 06:27:35;;;;;;;10.77;8.55;;;20.80;99.90;;;;;;4999308;28;20046;-75
2023/06/25 06:30:02;;;;;;;12.45;7.22;;;20.90;99.90;;;;;;5005218;28;20050;-74
2023/06/25 06:32:35;;;;;;;13.70;9.45;;;21.10;99.90;;;;;;5008094;28;20038;-75
2023/06/25 06:35:05;;;;;;;11.50;8.88;;;21.20;99.90;;;;;;5015472;28;20112;-75
2023/06/25 06:37:35;;;;;;;11.40;8.48;;;21.30;99.90;;;;;;5011220;28;20053;-74
2023/06/25 06:40:03;;;;;;;9.52;8.50;;;21.50;99.90;;;;;;5015671;28;20051;-75
2023/06/25 06:42:34;;;;;;;14.40;8.13;;;21.70;99.90;;;;;;5001000;28;20050;-76
2023/06/25 06:45:04;;;;;;;10.63;7.57;;;21.90;99.90;;;;;;5013640;28;20046;-76
2023/06/25 06:47:34;;;;;;;13.52;8.35;;;21.90;99.90;;;;;;5012129;28;20042;-74
2023/06/25 06:50:02;;;;;;;11.70;8.70;;;21.80;99.90;;;;;;5013772;28;20046;-77
2023/06/25 06:52:31;;;;;;;10.52;7.32;;;21.80;99.90;;;;;;5004925;28;20061;-77
2023/06/25 06:54:58;;;;;;;12.55;8.48;;;21.70;99.90;;;;;;4980383;28;20453;-75
2023/06/25 06:57:26;;;;;;;9.63;6.63;;;21.80;99.90;;;;;;4980557;28;20156;-77
2023/06/25 06:59:53;;;;;;;8.57;7.22;;;21.90;99.90;;;;;;5000285;28;20035;-76
2023/06/25 07:02:28;;;;;;;10.13;7.28;;;22.00;99.90;;;;;;5005931;28;20108;-73
2023/06/25 07:04:58;;;;;;;9.07;6.37;;;22.20;99.90;;;;;;5000526;28;20053;-79
2023/06/25 07:07:37;;;;;;;9.70;5.97;;;22.40;99.90;;;;;;4999455;28;20726;-77
2023/06/25 07:10:08;;;;;;;11.20;5.93;;;22.60;99.90;;;;;;4973571;28;20074;-76
2023/06/25 07:12:35;;;;;;;8.52;5.35;;;22.80;99.90;;;;;;5001501;28;20109;-79
2023/06/25 07:15:03;;;;;;;7.32;5.40;;;22.90;99.90;;;;;;4987102;28;20042;-73
2023/06/25 07:17:38;;;;;;;9.13;5.95;;;22.50;99.90;;;;;;4984914;28;20061;-78
2023/06/25 07:20:09;;;;;;;9.73;5.78;;;22.40;99.90;;;;;;5003138;28;20049;-75
2023/06/25 07:22:40;;;;;;;8.27;6.10;;;22.40;99.90;;;;;;5002441;28;20150;-75
2023/06/25 07:25:08;;;;;;;7.38;5.90;;;22.30;99.90;;;;;;5011244;28;20053;-76
2023/06/25 07:27:39;;;;;;;29.70;18.42;;;22.00;99.90;;;;;;5023951;28;20066;-76
2023/06/25 07:30:07;;;;;;;27.20;15.30;;;22.10;99.90;;;;;;5006218;28;20141;-76
2023/06/25 07:32:34;;;;;;;9.45;6.90;;;22.00;99.90;;;;;;4985949;28;20049;-75
2023/06/25 07:35:05;;;;;;;7.00;6.30;;;22.00;99.90;;;;;;5002896;28;20050;-74
2023/06/25 07:37:35;;;;;;;8.88;6.80;;;21.80;99.90;;;;;;5003600;28;20478;-82
2023/06/25 07:40:04;;;;;;;9.98;6.88;;;21.70;99.90;;;;;;5000502;28;20121;-77
2023/06/25 07:42:32;;;;;;;10.52;7.03;;;21.70;99.90;;;;;;5001017;28;20038;-76
2023/06/25 07:44:59;;;;;;;10.50;8.13;;;21.70;99.90;;;;;;5008097;28;20048;-75
2023/06/25 07:47:26;;;;;;;8.27;7.47;;;21.70;99.90;;;;;;5023712;28;20046;-75
2023/06/25 07:49:54;;;;;;;15.15;9.05;;;21.80;99.90;;;;;;5023956;28;20107;-77
2023/06/25 07:52:23;;;;;;;15.65;11.88;;;21.80;99.90;;;;;;5025216;28;20057;-76
2023/06/25 07:54:52;;;;;;;12.55;10.07;;;21.70;99.90;;;;;;5024589;28;20061;-77
2023/06/25 07:57:22;;;;;;;7.53;6.70;;;21.70;99.90;;;;;;5020571;28;20058;-74
2023/06/25 07:59:50;;;;;;;10.20;8.05;;;21.70;99.90;;;;;;5022398;28;20061;-76
2023/06/25 08:02:17;;;;;;;9.70;7.78;;;21.60;99.90;;;;;;5021993;28;20172;-76
2023/06/25 08:04:44;;;;;;;12.55;7.78;;;21.70;99.90;;;;;;5024709;28;20038;-75
2023/06/25 08:07:12;;;;;;;18.27;14.63;;;21.60;99.90;;;;;;5026262;28;20089;-76
2023/06/25 08:09:40;;;;;;;17.83;12.68;;;21.80;99.90;;;;;;5024007;28;20078;-76
2023/06/25 08:12:07;;;;;;;13.43;9.40;;;22.00;99.90;;;;;;5023484;28;20050;-76
2023/06/25 08:14:37;;;;;;;14.30;10.43;;;22.30;99.90;;;;;;5023784;28;20025;-75
2023/06/25 08:17:05;;;;;;;9.52;7.68;;;22.60;99.90;;;;;;5017048;28;20583;-77
2023/06/25 08:19:32;;;;;;;9.23;7.50;;;23.10;99.90;;;;;;5012610;28;20060;-75
2023/06/25 08:22:00;;;;;;;7.38;5.93;;;23.60;99.90;;;;;;5017645;28;20056;-74
2023/06/25 08:24:27;;;;;;;7.10;5.57;;;24.10;99.90;;;;;;5001776;28;20046;-76
2023/06/25 08:26:54;;;;;;;7.25;5.60;;;24.10;99.90;;;;;;5006175;28;20050;-75
2023/06/25 08:29:22;;;;;;;7.53;5.13;;;24.30;99.90;;;;;;5014958;28;20038;-76
2023/06/25 08:31:50;;;;;;;6.10;5.50;;;24.40;99.90;;;;;;5014774;28;20117;-77
2023/06/25 08:34:19;;;;;;;5.95;5.35;;;24.70;99.90;;;;;;4999853;28;20520;-77
2023/06/25 08:36:46;;;;;;;9.13;6.55;;;25.20;99.90;;;;;;5008231;28;20108;-73
2023/06/25 08:39:14;;;;;;;6.28;5.63;;;25.90;99.90;;;;;;5001011;28;20034;-75
2023/06/25 08:41:42;;;;;;;12.90;10.05;;;26.50;99.90;;;;;;5002139;28;20078;-77
2023/06/25 08:44:09;;;;;;;9.05;6.95;;;26.80;99.90;;;;;;4995498;28;20038;-76
2023/06/25 08:46:37;;;;;;;11.68;7.40;;;27.20;99.90;;;;;;5004619;28;20073;-74
2023/06/25 08:49:06;;;;;;;10.40;6.22;;;27.60;99.90;;;;;;5006593;28;20050;-76
2023/06/25 08:51:35;;;;;;;10.75;8.13;;;27.90;99.90;;;;;;4994470;28;20904;-76
2023/06/25 08:54:03;;;;;;;12.82;9.80;;;28.10;99.90;;;;;;5001339;28;20046;-78
2023/06/25 08:56:30;;;;;;;12.98;9.75;;;28.10;99.90;;;;;;5001232;28;20042;-76
2023/06/25 08:58:57;;;;;;;16.45;11.48;;;28.00;99.90;;;;;;4984541;28;20038;-76
2023/06/25 09:01:25;;;;;;;20.40;14.00;;;27.70;99.90;;;;;;4983099;28;20041;-76
2023/06/25 09:03:54;;;;;;;21.52;14.25;;;26.90;99.90;;;;;;4998169;28;20038;-78
2023/06/25 09:06:22;;;;;;;14.07;11.10;;;26.10;99.90;;;;;;5000898;28;20058;-77
2023/06/25 09:08:50;;;;;;;14.85;11.40;;;25.80;99.90;;;;;;5001032;28;20157;-76
2023/06/25 09:11:17;;;;;;;21.58;12.32;;;25.40;99.90;;;;;;4999652;28;20089;-76
2023/06/25 09:13:45;;;;;;;16.52;10.77;;;25.10;99.90;;;;;;5001660;28;20049;-77
2023/06/25 09:16:13;;;;;;;12.15;9.48;;;25.10;99.90;;;;;;4999533;28;20053;-76
2023/06/25 09:18:40;;;;;;;13.90;10.05;;;25.10;99.90;;;;;;4992942;28;20043;-77
2023/06/25 09:21:09;;;;;;;14.05;9.80;;;25.30;99.90;;;;;;5002814;28;20441;-77
2023/06/25 09:23:38;;;;;;;18.98;13.77;;;25.30;99.90;;;;;;5000714;28;20093;-76
2023/06/25 09:26:07;;;;;;;22.42;14.65;;;25.30;99.90;;;;;;5001948;28;20092;-78
2023/06/25 09:28:34;;;;;;;34.88;18.50;;;25.30;99.90;;;;;;5002629;28;20046;-77
2023/06/25 09:31:02;;;;;;;34.40;21.50;;;25.40;99.90;;;;;;5000725;28;20572;-76
2023/06/25 09:33:34;;;;;;;47.55;31.20;;;25.30;99.90;;;;;;5000183;28;20054;-78
2023/06/25 09:36:02;;;;;;;71.35;44.83;;;25.10;99.90;;;;;;4999540;28;20046;-78
2023/06/25 09:38:30;;;;;;;57.17;36.45;;;24.60;99.90;;;;;;5001237;28;20461;-78
2023/06/25 09:41:00;;;;;;;82.53;48.47;;;24.40;99.90;;;;;;4983455;28;20045;-78
2023/06/25 09:43:27;;;;;;;92.47;54.10;;;24.40;99.90;;;;;;4999446;28;20242;-77
2023/06/25 09:45:55;;;;;;;104.22;61.05;;;24.30;99.90;;;;;;5015243;28;20129;-77
2023/06/25 09:48:24;;;;;;;99.43;63.08;;;24.20;99.90;;;;;;5016991;28;20050;-77
2023/06/25 09:50:56;;;;;;;91.50;57.17;;;24.10;99.90;;;;;;5017458;28;20045;-78
2023/06/25 09:53:27;;;;;;;77.63;50.30;;;24.00;99.90;;;;;;5018886;28;20057;-78
2023/06/25 09:56:00;;;;;;;54.08;37.72;;;24.20;99.90;;;;;;5022525;28;20093;-78
2023/06/25 09:58:29;;;;;;;52.90;34.97;;;24.20;99.90;;;;;;5011337;28;20042;-76
2023/06/25 10:00:57;;;;;;;52.13;34.85;;;24.40;99.90;;;;;;5003384;28;20125;-78
2023/06/25 10:03:25;;;;;;;57.25;38.33;;;24.50;99.90;;;;;;4998184;28;20391;-78
2023/06/25 10:05:53;;;;;;;54.30;35.50;;;24.60;99.90;;;;;;5001883;28;20109;-78
2023/06/25 10:08:20;;;;;;;60.50;38.63;;;24.60;99.90;;;;;;4984507;28;20036;-76
2023/06/25 10:10:57;;;;;;;55.42;37.60;;;24.60;99.90;;;;;;5001641;28;20395;-77
2023/06/25 10:13:28;;;;;;;61.97;41.40;;;24.60;99.90;;;;;;5004105;28;20037;-76
2023/06/25 10:16:00;;;;;;;61.55;42.30;;;24.80;99.90;;;;;;5004248;28;20066;-76
2023/06/25 10:18:30;;;;;;;52.53;35.65;;;24.90;99.90;;;;;;4986920;28;20104;-77
2023/06/25 10:21:01;;;;;;;50.03;31.63;;;25.20;99.90;;;;;;5006114;28;20042;-77
2023/06/25 10:23:30;;;;;;;42.35;27.48;;;25.50;99.90;;;;;;4996798;28;20038;-76
2023/06/25 10:26:00;;;;;;;43.17;28.92;;;25.40;99.90;;;;;;5001490;28;20045;-76
2023/06/25 10:28:35;;;;;;;38.42;26.63;;;25.50;99.90;;;;;;5007322;28;20076;-77
2023/06/25 10:31:15;;;;;;;;;;;25.80;99.90;;;;;;5008561;28;20982;-76
2023/06/25 10:33:43;;;;;;;43.53;30.13;;;26.20;99.90;;;;;;5002997;28;19925;-77
2023/06/25 10:36:11;;;;;;;37.35;28.17;;;26.50;99.90;;;;;;4999288;28;20069;-76
2023/06/25 10:38:40;;;;;;;33.17;24.35;;;26.80;99.90;;;;;;4998805;28;20069;-76
2023/06/25 10:41:10;;;;;;;37.28;26.13;;;26.90;99.90;;;;;;4998130;28;20581;-77
2023/06/25 10:43:39;;;;;;;33.47;23.33;;;26.80;99.90;;;;;;4999866;28;20141;-76
2023/06/25 10:46:07;;;;;;;28.80;19.90;;;27.10;99.90;;;;;;4999939;28;20057;-77
2023/06/25 10:48:34;;;;;;;27.13;20.13;;;27.40;99.90;;;;;;4999396;28;20165;-76
2023/06/25 10:51:03;;;;;;;26.58;17.60;;;27.70;99.90;;;;;;4982921;28;20127;-78
2023/06/25 10:53:31;;;;;;;12.88;10.65;;;28.10;99.90;;;;;;4998523;28;20132;-76
2023/06/25 10:55:58;;;;;;;12.70;9.27;;;28.20;99.90;;;;;;4999550;28;20449;-76
2023/06/25 10:58:27;;;;;;;17.95;15.65;;;28.30;99.90;;;;;;5002570;28;20119;-76
2023/06/25 11:00:57;;;;;;;18.63;15.10;;;28.20;99.90;;;;;;5000658;28;20134;-77
2023/06/25 11:03:25;;;;;;;16.60;13.50;;;28.20;99.90;;;;;;4999517;28;20121;-77
2023/06/25 11:05:53;;;;;;;15.10;12.05;;;28.20;99.90;;;;;;4998231;28;20174;-77
2023/06/25 11:08:24;;;;;;;11.07;8.88;;;28.20;99.90;;;;;;5000470;28;20498;-76
2023/06/25 11:10:52;;;;;;;10.85;8.65;;;28.20;99.90;;;;;;4999232;28;20129;-77
2023/06/25 11:13:20;;;;;;;11.15;9.27;;;27.90;99.90;;;;;;4999891;28;20497;-76
2023/06/25 11:15:48;;;;;;;10.43;8.18;;;27.50;99.90;;;;;;4982826;28;20069;-77
2023/06/25 11:18:16;;;;;;;15.60;11.20;;;27.10;99.90;;;;;;4998764;28;20101;-77
2023/06/25 11:20:45;;;;;;;14.38;10.88;;;27.00;99.90;;;;;;4998629;28;20046;-77
2023/06/25 11:23:15;;;;;;;9.25;6.40;;;26.70;99.90;;;;;;4997855;28;20092;-79
2023/06/25 11:25:42;;;;;;;7.85;5.65;;;26.80;99.90;;;;;;4998173;28;20050;-75
2023/06/25 11:28:13;;;;;;;6.80;5.47;;;26.70;99.90;;;;;;4981954;28;20461;-78
2023/06/25 11:30:41;;;;;;;6.00;4.43;;;26.80;99.90;;;;;;5000602;28;20108;-76
2023/06/25 11:33:10;;;;;;;8.63;6.75;;;26.90;99.90;;;;;;5006894;28;20050;-76
2023/06/25 11:35:38;;;;;;;7.55;5.28;;;27.10;99.90;;;;;;4993765;28;20046;-77
2023/06/25 11:38:06;;;;;;;5.45;4.80;;;26.90;99.90;;;;;;5000394;28;20054;-75
2023/06/25 11:40:34;;;;;;;6.43;5.28;;;26.40;99.90;;;;;;4999887;28;20498;-76
2023/06/25 11:43:02;;;;;;;6.97;5.47;;;26.30;99.90;;;;;;4999800;28;20046;-75
2023/06/25 11:45:41;;;;;;;6.60;5.70;;;26.40;99.90;;;;;;4999068;28;20058;-75
2023/06/25 11:48:14;;;;;;;6.97;5.25;;;26.90;99.90;;;;;;4999422;28;20034;-76
2023/06/25 11:50:43;;;;;;;6.70;4.68;;;27.30;99.90;;;;;;5001687;28;20112;-76
2023/06/25 11:53:10;;;;;;;6.78;5.18;;;27.70;99.90;;;;;;4999312;28;20119;-77
2023/06/25 11:55:38;;;;;;;6.97;5.32;;;27.70;99.90;;;;;;5001033;28;20387;-76
2023/06/25 11:58:05;;;;;;;10.27;5.53;;;28.10;99.90;;;;;;5001797;28;20052;-77
2023/06/25 12:00:33;;;;;;;6.88;4.82;;;28.50;99.90;;;;;;5002162;28;20053;-78
2023/06/25 12:03:00;;;;;;;6.18;4.80;;;28.70;99.90;;;;;;5002274;28;20100;-76
2023/06/25 12:05:28;;;;;;;7.63;5.65;;;28.50;99.90;;;;;;5001039;28;20105;-78
2023/06/25 12:07:57;;;;;;;7.05;5.32;;;28.20;99.90;;;;;;4999956;28;20033;-80
2023/06/25 12:10:24;;;;;;;8.80;7.45;;;28.20;99.90;;;;;;5002313;28;20042;-78
2023/06/25 12:12:56;;;;;;;11.60;9.82;;;28.10;99.90;;;;;;5002468;28;20037;-77
2023/06/25 12:15:24;;;;;;;10.20;7.53;;;28.00;99.90;;;;;;5001176;28;20505;-77
2023/06/25 12:17:51;;;;;;;7.63;5.95;;;28.70;99.90;;;;;;5002912;28;20049;-77
2023/06/25 12:20:19;;;;;;;10.90;7.25;;;29.00;99.90;;;;;;5003194;28;20054;-77
2023/06/25 12:22:46;;;;;;;7.78;5.90;;;29.20;99.90;;;;;;5003830;28;20042;-77
2023/06/25 12:25:15;;;;;;;7.80;5.13;;;29.20;99.90;;;;;;4984554;28;20046;-78
2023/06/25 12:27:44;;;;;;;7.43;5.40;;;28.80;99.90;;;;;;5003121;28;20045;-77
2023/06/25 12:30:13;;;;;;;9.60;6.95;;;29.00;99.90;;;;;;5002270;28;20045;-78
2023/06/25 12:32:40;;;;;;;6.70;5.85;;;28.20;99.90;;;;;;5008059;28;20042;-77
2023/06/25 12:35:10;;;;;;;8.32;5.63;;;28.10;99.90;;;;;;5012863;28;20088;-80
2023/06/25 12:37:38;;;;;;;6.70;6.10;;;27.90;99.90;;;;;;5013934;28;20046;-78
2023/06/25 12:40:08;;;;;;;6.25;5.18;;;27.90;99.90;;;;;;5009197;28;20073;-79
2023/06/25 12:42:37;;;;;;;5.88;5.20;;;27.90;99.90;;;;;;5013433;28;20093;-79
2023/06/25 12:45:05;;;;;;;7.75;5.70;;;27.70;99.90;;;;;;5003684;28;20046;-77